sensor_id;sensor_type;location;lat;lon;timestamp;P1;durP1;ratioP1;P2;durP2;ratioP2
36725;SDS011;44936;52.086;5.150;2023-07-13T00:01:51;1.95;;;0.60;;
36725;SDS011;44936;52.086;5.150;2023-07-13T00:04:19;5.47;;;0.82;;
36725;SDS011;44936;52.086;5.150;2023-07-13T00:06:48;6.07;;;0.70;;
36725;SDS011;44936;52.086;5.150;2023-07-13T00:09:14;3.92;;;0.50;;
36725;SDS011;44936;52.086;5.150;2023-07-13T00:11:41;1.60;;;0.50;;
36725;SDS011;44936;52.086;5.150;2023-07-13T00:14:08;2.47;;;0.40;;
36725;SDS011;44936;52.086;5.150;2023-07-13T00:16:35;2.03;;;0.60;;
36725;SDS011;44936;52.086;5.150;2023-07-13T00:19:01;3.75;;;0.60;;
36725;SDS011;44936;52.086;5.150;2023-07-13T00:21:28;3.78;;;0.60;;
36725;SDS011;44936;52.086;5.150;2023-07-13T00:23:53;2.03;;;0.50;;
36725;SDS011;44936;52.086;5.150;2023-07-13T00:26:19;6.25;;;1.40;;
36725;SDS011;44936;52.086;5.150;2023-07-13T00:28:45;2.65;;;0.68;;
36725;SDS011;44936;52.086;5.150;2023-07-13T00:31:11;2.38;;;0.43;;
36725;SDS011;44936;52.086;5.150;2023-07-13T00:33:39;2.10;;;0.60;;
36725;SDS011;44936;52.086;5.150;2023-07-13T00:36:05;3.58;;;0.68;;
36725;SDS011;44936;52.086;5.150;2023-07-13T00:38:31;1.65;;;0.60;;
36725;SDS011;44936;52.086;5.150;2023-07-13T00:40:56;1.63;;;0.50;;
36725;SDS011;44936;52.086;5.150;2023-07-13T00:43:23;3.83;;;0.98;;
36725;SDS011;44936;52.086;5.150;2023-07-13T00:48:17;4.78;;;0.73;;
36725;SDS011;44936;52.086;5.150;2023-07-13T00:50:46;4.07;;;0.98;;
36725;SDS011;44936;52.086;5.150;2023-07-13T00:53:17;4.55;;;0.68;;
36725;SDS011;44936;52.086;5.150;2023-07-13T00:55:45;3.88;;;1.00;;
36725;SDS011;44936;52.086;5.150;2023-07-13T00:58:13;2.15;;;0.45;;
36725;SDS011;44936;52.086;5.150;2023-07-13T01:00:40;4.07;;;1.33;;
36725;SDS011;44936;52.086;5.150;2023-07-13T01:03:09;3.08;;;0.70;;
36725;SDS011;44936;52.086;5.150;2023-07-13T01:05:34;0.73;;;0.50;;
36725;SDS011;44936;52.086;5.150;2023-07-13T01:08:01;4.88;;;0.60;;
36725;SDS011;44936;52.086;5.150;2023-07-13T01:10:30;2.50;;;0.68;;
36725;SDS011;44936;52.086;5.150;2023-07-13T01:13:02;4.88;;;1.00;;
36725;SDS011;44936;52.086;5.150;2023-07-13T01:15:47;3.30;;;0.60;;
36725;SDS011;44936;52.086;5.150;2023-07-13T01:18:15;4.35;;;0.88;;
36725;SDS011;44936;52.086;5.150;2023-07-13T01:23:26;0.57;;;0.30;;
36725;SDS011;44936;52.086;5.150;2023-07-13T01:25:52;8.38;;;0.65;;
36725;SDS011;44936;52.086;5.150;2023-07-13T01:28:20;6.32;;;0.47;;
36725;SDS011;44936;52.086;5.150;2023-07-13T01:30:47;3.03;;;0.57;;
36725;SDS011;44936;52.086;5.150;2023-07-13T01:33:13;2.10;;;0.63;;
36725;SDS011;44936;52.086;5.150;2023-07-13T01:35:41;3.25;;;0.85;;
36725;SDS011;44936;52.086;5.150;2023-07-13T01:38:08;3.25;;;0.70;;
36725;SDS011;44936;52.086;5.150;2023-07-13T01:40:35;1.98;;;0.70;;
36725;SDS011;44936;52.086;5.150;2023-07-13T01:43:01;1.15;;;0.65;;
36725;SDS011;44936;52.086;5.150;2023-07-13T01:45:30;1.65;;;0.47;;
36725;SDS011;44936;52.086;5.150;2023-07-13T01:47:56;4.18;;;0.75;;
36725;SDS011;44936;52.086;5.150;2023-07-13T01:50:22;3.22;;;0.90;;
36725;SDS011;44936;52.086;5.150;2023-07-13T01:52:48;3.35;;;0.55;;
36725;SDS011;44936;52.086;5.150;2023-07-13T01:55:14;4.65;;;0.57;;
36725;SDS011;44936;52.086;5.150;2023-07-13T01:57:39;3.55;;;0.65;;
36725;SDS011;44936;52.086;5.150;2023-07-13T02:00:05;3.53;;;1.00;;
36725;SDS011;44936;52.086;5.150;2023-07-13T02:02:35;4.85;;;0.95;;
36725;SDS011;44936;52.086;5.150;2023-07-13T02:05:00;3.20;;;0.75;;
36725;SDS011;44936;52.086;5.150;2023-07-13T02:07:26;3.08;;;0.57;;
36725;SDS011;44936;52.086;5.150;2023-07-13T02:09:51;3.13;;;0.60;;
36725;SDS011;44936;52.086;5.150;2023-07-13T02:12:16;1.63;;;0.82;;
36725;SDS011;44936;52.086;5.150;2023-07-13T02:14:42;2.20;;;0.80;;
36725;SDS011;44936;52.086;5.150;2023-07-13T02:17:09;6.45;;;0.93;;
36725;SDS011;44936;52.086;5.150;2023-07-13T02:19:34;3.47;;;0.63;;
36725;SDS011;44936;52.086;5.150;2023-07-13T02:22:00;1.67;;;0.47;;
36725;SDS011;44936;52.086;5.150;2023-07-13T02:24:25;4.78;;;0.60;;
36725;SDS011;44936;52.086;5.150;2023-07-13T02:26:51;2.22;;;0.60;;
36725;SDS011;44936;52.086;5.150;2023-07-13T02:29:17;2.47;;;0.88;;
36725;SDS011;44936;52.086;5.150;2023-07-13T02:31:42;2.50;;;0.80;;
36725;SDS011;44936;52.086;5.150;2023-07-13T02:34:08;3.13;;;0.65;;
36725;SDS011;44936;52.086;5.150;2023-07-13T02:36:33;4.18;;;0.60;;
36725;SDS011;44936;52.086;5.150;2023-07-13T02:39:03;1.48;;;0.40;;
36725;SDS011;44936;52.086;5.150;2023-07-13T02:41:30;6.55;;;0.85;;
36725;SDS011;44936;52.086;5.150;2023-07-13T02:43:57;5.43;;;0.90;;
36725;SDS011;44936;52.086;5.150;2023-07-13T02:46:28;1.77;;;0.52;;
36725;SDS011;44936;52.086;5.150;2023-07-13T02:48:54;3.30;;;0.90;;
36725;SDS011;44936;52.086;5.150;2023-07-13T02:51:19;4.65;;;1.02;;
36725;SDS011;44936;52.086;5.150;2023-07-13T02:53:45;2.22;;;0.63;;
36725;SDS011;44936;52.086;5.150;2023-07-13T02:56:10;3.97;;;0.82;;
36725;SDS011;44936;52.086;5.150;2023-07-13T02:58:36;3.83;;;1.10;;
36725;SDS011;44936;52.086;5.150;2023-07-13T03:01:07;3.53;;;1.00;;
36725;SDS011;44936;52.086;5.150;2023-07-13T03:03:34;3.78;;;1.10;;
36725;SDS011;44936;52.086;5.150;2023-07-13T03:06:00;5.38;;;0.90;;
36725;SDS011;44936;52.086;5.150;2023-07-13T03:08:28;4.75;;;1.10;;
36725;SDS011;44936;52.086;5.150;2023-07-13T03:11:04;1.27;;;0.55;;
36725;SDS011;44936;52.086;5.150;2023-07-13T03:13:34;1.83;;;0.93;;
36725;SDS011;44936;52.086;5.150;2023-07-13T03:16:00;1.90;;;0.55;;
36725;SDS011;44936;52.086;5.150;2023-07-13T03:18:27;3.53;;;0.70;;
36725;SDS011;44936;52.086;5.150;2023-07-13T03:20:53;1.70;;;0.32;;
36725;SDS011;44936;52.086;5.150;2023-07-13T03:23:21;5.05;;;0.80;;
36725;SDS011;44936;52.086;5.150;2023-07-13T03:25:47;2.33;;;0.60;;
36725;SDS011;44936;52.086;5.150;2023-07-13T03:28:13;4.80;;;0.60;;
36725;SDS011;44936;52.086;5.150;2023-07-13T03:30:39;3.05;;;0.40;;
36725;SDS011;44936;52.086;5.150;2023-07-13T03:33:05;2.80;;;0.80;;
36725;SDS011;44936;52.086;5.150;2023-07-13T03:35:30;4.03;;;0.70;;
36725;SDS011;44936;52.086;5.150;2023-07-13T03:37:57;2.55;;;0.60;;
36725;SDS011;44936;52.086;5.150;2023-07-13T03:40:24;2.58;;;0.50;;
36725;SDS011;44936;52.086;5.150;2023-07-13T03:42:51;0.80;;;0.60;;
36725;SDS011;44936;52.086;5.150;2023-07-13T03:45:16;6.13;;;0.90;;
36725;SDS011;44936;52.086;5.150;2023-07-13T03:47:42;8.43;;;1.63;;
36725;SDS011;44936;52.086;5.150;2023-07-13T03:50:07;2.83;;;0.90;;
36725;SDS011;44936;52.086;5.150;2023-07-13T03:52:33;5.10;;;1.05;;
36725;SDS011;44936;52.086;5.150;2023-07-13T03:54:59;6.25;;;1.38;;
36725;SDS011;44936;52.086;5.150;2023-07-13T03:57:25;6.03;;;1.30;;
36725;SDS011;44936;52.086;5.150;2023-07-13T03:59:51;6.95;;;1.08;;
36725;SDS011;44936;52.086;5.150;2023-07-13T04:02:16;4.10;;;1.40;;
36725;SDS011;44936;52.086;5.150;2023-07-13T04:04:42;1.92;;;0.80;;
36725;SDS011;44936;52.086;5.150;2023-07-13T04:07:08;7.72;;;1.00;;
36725;SDS011;44936;52.086;5.150;2023-07-13T04:09:34;15.45;;;1.27;;
36725;SDS011;44936;52.086;5.150;2023-07-13T04:12:00;4.22;;;0.90;;
36725;SDS011;44936;52.086;5.150;2023-07-13T04:14:26;2.20;;;0.80;;
36725;SDS011;44936;52.086;5.150;2023-07-13T04:16:51;3.83;;;1.05;;
36725;SDS011;44936;52.086;5.150;2023-07-13T04:19:19;5.25;;;1.27;;
36725;SDS011;44936;52.086;5.150;2023-07-13T04:21:45;2.45;;;0.93;;
36725;SDS011;44936;52.086;5.150;2023-07-13T04:24:14;4.32;;;0.80;;
36725;SDS011;44936;52.086;5.150;2023-07-13T04:26:40;2.92;;;1.13;;
36725;SDS011;44936;52.086;5.150;2023-07-13T04:29:06;4.00;;;1.13;;
36725;SDS011;44936;52.086;5.150;2023-07-13T04:31:32;3.28;;;0.90;;
36725;SDS011;44936;52.086;5.150;2023-07-13T04:33:58;3.08;;;1.08;;
36725;SDS011;44936;52.086;5.150;2023-07-13T04:36:24;2.10;;;0.90;;
36725;SDS011;44936;52.086;5.150;2023-07-13T04:38:52;7.63;;;1.35;;
36725;SDS011;44936;52.086;5.150;2023-07-13T04:41:19;3.45;;;0.93;;
36725;SDS011;44936;52.086;5.150;2023-07-13T04:43:45;4.85;;;1.20;;
36725;SDS011;44936;52.086;5.150;2023-07-13T04:46:14;4.50;;;0.95;;
36725;SDS011;44936;52.086;5.150;2023-07-13T04:48:42;8.95;;;1.40;;
36725;SDS011;44936;52.086;5.150;2023-07-13T04:51:08;4.47;;;1.20;;
36725;SDS011;44936;52.086;5.150;2023-07-13T04:53:33;3.08;;;0.90;;
36725;SDS011;44936;52.086;5.150;2023-07-13T04:55:59;9.35;;;1.27;;
36725;SDS011;44936;52.086;5.150;2023-07-13T05:01:36;5.27;;;1.17;;
36725;SDS011;44936;52.086;5.150;2023-07-13T05:04:01;7.95;;;1.23;;
36725;SDS011;44936;52.086;5.150;2023-07-13T05:06:30;2.13;;;1.00;;
36725;SDS011;44936;52.086;5.150;2023-07-13T05:08:56;5.45;;;1.13;;
36725;SDS011;44936;52.086;5.150;2023-07-13T05:11:22;3.92;;;1.42;;
36725;SDS011;44936;52.086;5.150;2023-07-13T05:13:47;7.13;;;1.50;;
36725;SDS011;44936;52.086;5.150;2023-07-13T05:16:12;7.40;;;1.40;;
36725;SDS011;44936;52.086;5.150;2023-07-13T05:18:38;4.80;;;1.02;;
36725;SDS011;44936;52.086;5.150;2023-07-13T05:21:05;5.95;;;1.73;;
36725;SDS011;44936;52.086;5.150;2023-07-13T05:23:34;9.48;;;1.10;;
36725;SDS011;44936;52.086;5.150;2023-07-13T05:26:01;4.13;;;1.35;;
36725;SDS011;44936;52.086;5.150;2023-07-13T05:28:28;7.78;;;1.35;;
36725;SDS011;44936;52.086;5.150;2023-07-13T05:30:55;7.00;;;1.63;;
36725;SDS011;44936;52.086;5.150;2023-07-13T05:33:20;5.75;;;1.52;;
36725;SDS011;44936;52.086;5.150;2023-07-13T05:35:46;8.63;;;1.65;;
36725;SDS011;44936;52.086;5.150;2023-07-13T05:38:12;5.10;;;1.45;;
36725;SDS011;44936;52.086;5.150;2023-07-13T05:40:37;4.97;;;1.23;;
36725;SDS011;44936;52.086;5.150;2023-07-13T05:43:03;9.00;;;1.70;;
36725;SDS011;44936;52.086;5.150;2023-07-13T05:45:28;2.08;;;1.30;;
36725;SDS011;44936;52.086;5.150;2023-07-13T05:47:54;7.40;;;1.40;;
36725;SDS011;44936;52.086;5.150;2023-07-13T05:50:20;6.25;;;1.90;;
36725;SDS011;44936;52.086;5.150;2023-07-13T05:52:46;6.40;;;1.45;;
36725;SDS011;44936;52.086;5.150;2023-07-13T05:55:13;6.70;;;1.48;;
36725;SDS011;44936;52.086;5.150;2023-07-13T05:57:38;3.63;;;1.33;;
36725;SDS011;44936;52.086;5.150;2023-07-13T06:00:04;5.18;;;1.60;;
36725;SDS011;44936;52.086;5.150;2023-07-13T06:02:30;5.82;;;1.35;;
36725;SDS011;44936;52.086;5.150;2023-07-13T06:04:56;10.38;;;1.85;;
36725;SDS011;44936;52.086;5.150;2023-07-13T06:07:21;4.38;;;1.60;;
36725;SDS011;44936;52.086;5.150;2023-07-13T06:09:48;12.50;;;1.95;;
36725;SDS011;44936;52.086;5.150;2023-07-13T06:12:14;5.50;;;1.83;;
36725;SDS011;44936;52.086;5.150;2023-07-13T06:14:39;6.03;;;1.77;;
36725;SDS011;44936;52.086;5.150;2023-07-13T06:17:05;7.57;;;2.08;;
36725;SDS011;44936;52.086;5.150;2023-07-13T06:19:31;8.60;;;1.60;;
36725;SDS011;44936;52.086;5.150;2023-07-13T06:21:56;4.18;;;1.80;;
36725;SDS011;44936;52.086;5.150;2023-07-13T06:24:25;4.50;;;2.03;;
36725;SDS011;44936;52.086;5.150;2023-07-13T06:26:51;3.60;;;1.90;;
36725;SDS011;44936;52.086;5.150;2023-07-13T06:29:16;7.03;;;1.67;;
36725;SDS011;44936;52.086;5.150;2023-07-13T06:31:43;7.07;;;2.20;;
36725;SDS011;44936;52.086;5.150;2023-07-13T06:34:08;8.95;;;2.17;;
36725;SDS011;44936;52.086;5.150;2023-07-13T06:36:34;7.22;;;2.03;;
36725;SDS011;44936;52.086;5.150;2023-07-13T06:39:01;6.53;;;2.13;;
36725;SDS011;44936;52.086;5.150;2023-07-13T06:41:27;6.97;;;2.05;;
36725;SDS011;44936;52.086;5.150;2023-07-13T06:43:52;6.53;;;2.13;;
36725;SDS011;44936;52.086;5.150;2023-07-13T06:46:20;8.65;;;2.50;;
36725;SDS011;44936;52.086;5.150;2023-07-13T06:48:49;6.10;;;2.55;;
36725;SDS011;44936;52.086;5.150;2023-07-13T06:51:15;6.72;;;2.13;;
36725;SDS011;44936;52.086;5.150;2023-07-13T06:53:40;5.25;;;2.30;;
36725;SDS011;44936;52.086;5.150;2023-07-13T06:56:07;7.63;;;2.33;;
36725;SDS011;44936;52.086;5.150;2023-07-13T06:58:35;3.60;;;1.95;;
36725;SDS011;44936;52.086;5.150;2023-07-13T07:01:00;5.63;;;1.98;;
36725;SDS011;44936;52.086;5.150;2023-07-13T07:03:26;10.25;;;2.38;;
36725;SDS011;44936;52.086;5.150;2023-07-13T07:05:53;8.35;;;2.08;;
36725;SDS011;44936;52.086;5.150;2023-07-13T07:08:19;9.45;;;2.25;;
36725;SDS011;44936;52.086;5.150;2023-07-13T07:10:45;5.93;;;2.30;;
36725;SDS011;44936;52.086;5.150;2023-07-13T07:13:11;5.88;;;2.05;;
36725;SDS011;44936;52.086;5.150;2023-07-13T07:15:58;4.85;;;1.80;;
36725;SDS011;44936;52.086;5.150;2023-07-13T07:18:25;6.65;;;2.15;;
36725;SDS011;44936;52.086;5.150;2023-07-13T07:20:50;8.18;;;1.90;;
36725;SDS011;44936;52.086;5.150;2023-07-13T07:23:16;7.53;;;1.98;;
36725;SDS011;44936;52.086;5.150;2023-07-13T07:25:43;5.60;;;1.75;;
36725;SDS011;44936;52.086;5.150;2023-07-13T07:28:10;3.90;;;1.77;;
36725;SDS011;44936;52.086;5.150;2023-07-13T07:30:42;4.72;;;1.67;;
36725;SDS011;44936;52.086;5.150;2023-07-13T07:33:08;5.25;;;1.98;;
36725;SDS011;44936;52.086;5.150;2023-07-13T07:35:35;2.72;;;1.70;;
36725;SDS011;44936;52.086;5.150;2023-07-13T07:38:01;6.78;;;2.47;;
36725;SDS011;44936;52.086;5.150;2023-07-13T07:40:27;5.43;;;1.60;;
36725;SDS011;44936;52.086;5.150;2023-07-13T07:43:11;4.43;;;1.90;;
36725;SDS011;44936;52.086;5.150;2023-07-13T07:46:24;5.20;;;1.90;;
36725;SDS011;44936;52.086;5.150;2023-07-13T07:48:49;7.60;;;2.03;;
36725;SDS011;44936;52.086;5.150;2023-07-13T07:51:18;6.85;;;2.80;;
36725;SDS011;44936;52.086;5.150;2023-07-13T07:53:43;9.73;;;2.20;;
36725;SDS011;44936;52.086;5.150;2023-07-13T07:56:08;6.18;;;2.50;;
36725;SDS011;44936;52.086;5.150;2023-07-13T07:58:35;8.38;;;2.28;;
36725;SDS011;44936;52.086;5.150;2023-07-13T08:01:04;4.53;;;1.70;;
36725;SDS011;44936;52.086;5.150;2023-07-13T08:03:34;7.32;;;2.10;;
36725;SDS011;44936;52.086;5.150;2023-07-13T08:06:01;10.45;;;2.28;;
36725;SDS011;44936;52.086;5.150;2023-07-13T08:09:24;7.20;;;2.72;;
36725;SDS011;44936;52.086;5.150;2023-07-13T08:11:49;3.38;;;2.00;;
36725;SDS011;44936;52.086;5.150;2023-07-13T08:14:16;7.35;;;2.03;;
36725;SDS011;44936;52.086;5.150;2023-07-13T08:16:41;4.13;;;1.83;;
36725;SDS011;44936;52.086;5.150;2023-07-13T08:19:11;3.38;;;1.58;;
36725;SDS011;44936;52.086;5.150;2023-07-13T08:21:37;1.55;;;1.20;;
36725;SDS011;44936;52.086;5.150;2023-07-13T08:24:29;1.45;;;0.85;;
36725;SDS011;44936;52.086;5.150;2023-07-13T08:27:24;4.15;;;1.65;;
36725;SDS011;44936;52.086;5.150;2023-07-13T08:29:51;2.53;;;0.90;;
36725;SDS011;44936;52.086;5.150;2023-07-13T08:32:17;3.00;;;1.02;;
36725;SDS011;44936;52.086;5.150;2023-07-13T08:34:47;1.52;;;0.82;;
36725;SDS011;44936;52.086;5.150;2023-07-13T08:37:13;2.58;;;1.20;;
36725;SDS011;44936;52.086;5.150;2023-07-13T08:39:42;2.92;;;1.15;;
36725;SDS011;44936;52.086;5.150;2023-07-13T08:47:54;1.50;;;0.80;;
36725;SDS011;44936;52.086;5.150;2023-07-13T08:53:46;3.28;;;0.80;;
36725;SDS011;44936;52.086;5.150;2023-07-13T08:59:30;2.00;;;0.95;;
36725;SDS011;44936;52.086;5.150;2023-07-13T09:04:50;1.20;;;1.08;;
36725;SDS011;44936;52.086;5.150;2023-07-13T09:07:41;3.20;;;1.10;;
36725;SDS011;44936;52.086;5.150;2023-07-13T09:10:26;3.22;;;0.93;;
36725;SDS011;44936;52.086;5.150;2023-07-13T09:15:50;2.85;;;1.05;;
36725;SDS011;44936;52.086;5.150;2023-07-13T09:21:02;1.85;;;1.10;;
36725;SDS011;44936;52.086;5.150;2023-07-13T09:23:53;1.52;;;0.90;;
36725;SDS011;44936;52.086;5.150;2023-07-13T09:26:22;1.15;;;0.90;;
36725;SDS011;44936;52.086;5.150;2023-07-13T09:28:53;3.33;;;1.20;;
36725;SDS011;44936;52.086;5.150;2023-07-13T09:34:40;5.40;;;0.90;;
36725;SDS011;44936;52.086;5.150;2023-07-13T09:37:07;2.92;;;0.98;;
36725;SDS011;44936;52.086;5.150;2023-07-13T09:39:33;1.33;;;0.60;;
36725;SDS011;44936;52.086;5.150;2023-07-13T09:44:56;1.42;;;0.77;;
36725;SDS011;44936;52.086;5.150;2023-07-13T09:50:08;1.15;;;0.88;;
36725;SDS011;44936;52.086;5.150;2023-07-13T09:55:24;3.72;;;1.00;;
36725;SDS011;44936;52.086;5.150;2023-07-13T09:57:53;3.40;;;1.05;;
36725;SDS011;44936;52.086;5.150;2023-07-13T10:00:29;2.05;;;1.20;;
36725;SDS011;44936;52.086;5.150;2023-07-13T10:02:58;2.00;;;1.00;;
36725;SDS011;44936;52.086;5.150;2023-07-13T10:05:24;3.20;;;1.17;;
36725;SDS011;44936;52.086;5.150;2023-07-13T10:07:50;1.45;;;1.20;;
36725;SDS011;44936;52.086;5.150;2023-07-13T10:10:17;4.95;;;1.10;;
36725;SDS011;44936;52.086;5.150;2023-07-13T10:13:03;3.35;;;1.00;;
36725;SDS011;44936;52.086;5.150;2023-07-13T10:15:30;1.58;;;0.90;;
36725;SDS011;44936;52.086;5.150;2023-07-13T10:17:56;2.85;;;1.40;;
36725;SDS011;44936;52.086;5.150;2023-07-13T10:20:23;2.80;;;1.08;;
36725;SDS011;44936;52.086;5.150;2023-07-13T10:22:56;2.75;;;0.85;;
36725;SDS011;44936;52.086;5.150;2023-07-13T10:25:26;2.88;;;1.50;;
36725;SDS011;44936;52.086;5.150;2023-07-13T10:28:01;3.08;;;1.10;;
36725;SDS011;44936;52.086;5.150;2023-07-13T10:30:35;1.17;;;0.85;;
36725;SDS011;44936;52.086;5.150;2023-07-13T10:33:09;7.72;;;1.33;;
36725;SDS011;44936;52.086;5.150;2023-07-13T10:35:38;1.70;;;1.30;;
36725;SDS011;44936;52.086;5.150;2023-07-13T10:38:10;1.08;;;0.80;;
36725;SDS011;44936;52.086;5.150;2023-07-13T10:40:39;1.00;;;0.60;;
36725;SDS011;44936;52.086;5.150;2023-07-13T10:43:14;1.33;;;1.10;;
36725;SDS011;44936;52.086;5.150;2023-07-13T10:45:59;1.42;;;0.77;;
36725;SDS011;44936;52.086;5.150;2023-07-13T10:48:27;2.58;;;0.95;;
36725;SDS011;44936;52.086;5.150;2023-07-13T10:50:54;1.38;;;1.00;;
36725;SDS011;44936;52.086;5.150;2023-07-13T10:53:29;2.53;;;0.85;;
36725;SDS011;44936;52.086;5.150;2023-07-13T10:55:59;2.17;;;0.85;;
36725;SDS011;44936;52.086;5.150;2023-07-13T11:01:09;2.85;;;1.15;;
36725;SDS011;44936;52.086;5.150;2023-07-13T11:08:57;0.98;;;0.90;;
36725;SDS011;44936;52.086;5.150;2023-07-13T11:13:58;4.22;;;1.48;;
36725;SDS011;44936;52.086;5.150;2023-07-13T11:16:34;1.90;;;1.25;;
36725;SDS011;44936;52.086;5.150;2023-07-13T11:24:47;3.50;;;1.55;;
36725;SDS011;44936;52.086;5.150;2023-07-13T11:32:50;4.63;;;1.40;;
36725;SDS011;44936;52.086;5.150;2023-07-13T11:35:24;4.00;;;1.13;;
36725;SDS011;44936;52.086;5.150;2023-07-13T11:37:51;2.22;;;1.30;;
36725;SDS011;44936;52.086;5.150;2023-07-13T11:40:17;2.78;;;1.50;;
36725;SDS011;44936;52.086;5.150;2023-07-13T11:42:58;5.20;;;0.98;;
36725;SDS011;44936;52.086;5.150;2023-07-13T11:45:25;2.45;;;0.98;;
36725;SDS011;44936;52.086;5.150;2023-07-13T11:47:50;2.45;;;1.20;;
36725;SDS011;44936;52.086;5.150;2023-07-13T11:50:20;3.40;;;1.45;;
36725;SDS011;44936;52.086;5.150;2023-07-13T11:52:48;7.82;;;1.70;;
36725;SDS011;44936;52.086;5.150;2023-07-13T11:55:17;1.92;;;1.20;;
36725;SDS011;44936;52.086;5.150;2023-07-13T11:57:59;3.20;;;1.45;;
36725;SDS011;44936;52.086;5.150;2023-07-13T12:00:29;1.52;;;1.10;;
36725;SDS011;44936;52.086;5.150;2023-07-13T12:02:59;2.63;;;1.05;;
36725;SDS011;44936;52.086;5.150;2023-07-13T12:05:27;3.95;;;1.00;;
36725;SDS011;44936;52.086;5.150;2023-07-13T12:07:53;2.13;;;0.95;;
36725;SDS011;44936;52.086;5.150;2023-07-13T12:15:22;2.00;;;0.93;;
36725;SDS011;44936;52.086;5.150;2023-07-13T12:17:52;1.23;;;1.02;;
36725;SDS011;44936;52.086;5.150;2023-07-13T12:20:21;1.40;;;0.65;;
36725;SDS011;44936;52.086;5.150;2023-07-13T12:22:50;4.32;;;1.10;;
36725;SDS011;44936;52.086;5.150;2023-07-13T12:25:17;2.50;;;1.10;;
36725;SDS011;44936;52.086;5.150;2023-07-13T12:27:47;2.20;;;1.20;;
36725;SDS011;44936;52.086;5.150;2023-07-13T12:30:31;2.03;;;0.80;;
36725;SDS011;44936;52.086;5.150;2023-07-13T12:33:07;2.40;;;1.25;;
36725;SDS011;44936;52.086;5.150;2023-07-13T12:35:41;1.30;;;0.90;;
36725;SDS011;44936;52.086;5.150;2023-07-13T12:38:17;3.08;;;1.27;;
36725;SDS011;44936;52.086;5.150;2023-07-13T12:40:46;1.50;;;1.00;;
36725;SDS011;44936;52.086;5.150;2023-07-13T12:43:15;1.63;;;1.15;;
36725;SDS011;44936;52.086;5.150;2023-07-13T12:45:54;1.58;;;0.88;;
36725;SDS011;44936;52.086;5.150;2023-07-13T12:48:30;4.32;;;0.80;;
36725;SDS011;44936;52.086;5.150;2023-07-13T12:51:03;3.15;;;0.85;;
36725;SDS011;44936;52.086;5.150;2023-07-13T12:53:29;1.85;;;1.10;;
36725;SDS011;44936;52.086;5.150;2023-07-13T12:55:59;1.65;;;1.00;;
36725;SDS011;44936;52.086;5.150;2023-07-13T12:58:34;4.28;;;0.95;;
36725;SDS011;44936;52.086;5.150;2023-07-13T13:01:02;1.58;;;0.85;;
36725;SDS011;44936;52.086;5.150;2023-07-13T13:03:34;1.17;;;0.63;;
36725;SDS011;44936;52.086;5.150;2023-07-13T13:06:06;3.28;;;1.10;;
36725;SDS011;44936;52.086;5.150;2023-07-13T13:08:52;1.70;;;1.00;;
36725;SDS011;44936;52.086;5.150;2023-07-13T13:11:20;1.83;;;1.13;;
36725;SDS011;44936;52.086;5.150;2023-07-13T13:13:48;4.13;;;1.20;;
36725;SDS011;44936;52.086;5.150;2023-07-13T13:16:17;2.70;;;1.05;;
36725;SDS011;44936;52.086;5.150;2023-07-13T13:18:46;1.05;;;0.80;;
36725;SDS011;44936;52.086;5.150;2023-07-13T13:21:13;2.30;;;1.02;;
36725;SDS011;44936;52.086;5.150;2023-07-13T13:23:38;1.98;;;0.95;;
36725;SDS011;44936;52.086;5.150;2023-07-13T13:26:05;1.60;;;0.93;;
36725;SDS011;44936;52.086;5.150;2023-07-13T13:28:35;0.93;;;0.73;;
36725;SDS011;44936;52.086;5.150;2023-07-13T13:31:00;2.53;;;1.10;;
36725;SDS011;44936;52.086;5.150;2023-07-13T13:33:26;2.88;;;1.17;;
36725;SDS011;44936;52.086;5.150;2023-07-13T13:35:51;7.35;;;1.50;;
36725;SDS011;44936;52.086;5.150;2023-07-13T13:38:17;11.02;;;1.27;;
36725;SDS011;44936;52.086;5.150;2023-07-13T13:40:46;2.03;;;1.13;;
36725;SDS011;44936;52.086;5.150;2023-07-13T13:43:15;4.38;;;1.00;;
36725;SDS011;44936;52.086;5.150;2023-07-13T13:45:42;3.28;;;1.20;;
36725;SDS011;44936;52.086;5.150;2023-07-13T13:48:20;1.95;;;1.05;;
36725;SDS011;44936;52.086;5.150;2023-07-13T13:50:55;3.08;;;1.00;;
36725;SDS011;44936;52.086;5.150;2023-07-13T13:53:21;3.20;;;1.10;;
36725;SDS011;44936;52.086;5.150;2023-07-13T13:55:48;1.77;;;1.25;;
36725;SDS011;44936;52.086;5.150;2023-07-13T13:58:18;2.67;;;0.90;;
36725;SDS011;44936;52.086;5.150;2023-07-13T14:00:43;1.42;;;1.00;;
36725;SDS011;44936;52.086;5.150;2023-07-13T14:03:17;1.17;;;0.80;;
36725;SDS011;44936;52.086;5.150;2023-07-13T14:05:45;1.20;;;0.73;;
36725;SDS011;44936;52.086;5.150;2023-07-13T14:08:21;2.50;;;0.90;;
36725;SDS011;44936;52.086;5.150;2023-07-13T14:10:48;4.57;;;1.00;;
36725;SDS011;44936;52.086;5.150;2023-07-13T14:13:21;3.05;;;0.95;;
36725;SDS011;44936;52.086;5.150;2023-07-13T14:15:51;3.13;;;0.95;;
36725;SDS011;44936;52.086;5.150;2023-07-13T14:18:18;1.75;;;1.00;;
36725;SDS011;44936;52.086;5.150;2023-07-13T14:20:44;3.40;;;1.00;;
36725;SDS011;44936;52.086;5.150;2023-07-13T14:23:11;1.92;;;1.00;;
36725;SDS011;44936;52.086;5.150;2023-07-13T14:25:37;3.03;;;1.17;;
36725;SDS011;44936;52.086;5.150;2023-07-13T14:28:26;2.67;;;0.90;;
36725;SDS011;44936;52.086;5.150;2023-07-13T14:30:50;3.10;;;1.05;;
36725;SDS011;44936;52.086;5.150;2023-07-13T14:33:16;1.17;;;0.80;;
36725;SDS011;44936;52.086;5.150;2023-07-13T14:35:42;2.90;;;0.88;;
36725;SDS011;44936;52.086;5.150;2023-07-13T14:38:11;2.13;;;0.90;;
36725;SDS011;44936;52.086;5.150;2023-07-13T14:43:09;2.40;;;0.68;;
36725;SDS011;44936;52.086;5.150;2023-07-13T14:45:35;0.65;;;0.40;;
36725;SDS011;44936;52.086;5.150;2023-07-13T14:48:11;3.45;;;0.70;;
36725;SDS011;44936;52.086;5.150;2023-07-13T14:50:40;1.75;;;0.70;;
36725;SDS011;44936;52.086;5.150;2023-07-13T14:53:09;3.28;;;0.80;;
36725;SDS011;44936;52.086;5.150;2023-07-13T14:55:36;1.40;;;0.80;;
36725;SDS011;44936;52.086;5.150;2023-07-13T14:58:01;3.17;;;1.52;;
36725;SDS011;44936;52.086;5.150;2023-07-13T15:00:27;3.90;;;0.50;;
36725;SDS011;44936;52.086;5.150;2023-07-13T15:02:55;2.20;;;1.00;;
36725;SDS011;44936;52.086;5.150;2023-07-13T15:05:24;0.75;;;0.70;;
36725;SDS011;44936;52.086;5.150;2023-07-13T15:07:52;1.80;;;0.50;;
36725;SDS011;44936;52.086;5.150;2023-07-13T15:10:19;2.08;;;0.60;;
36725;SDS011;44936;52.086;5.150;2023-07-13T15:12:47;4.28;;;0.98;;
36725;SDS011;44936;52.086;5.150;2023-07-13T15:15:13;1.00;;;0.88;;
36725;SDS011;44936;52.086;5.150;2023-07-13T15:17:42;4.50;;;0.85;;
36725;SDS011;44936;52.086;5.150;2023-07-13T15:20:26;2.92;;;0.68;;
36725;SDS011;44936;52.086;5.150;2023-07-13T15:22:54;2.00;;;0.60;;
36725;SDS011;44936;52.086;5.150;2023-07-13T15:25:22;1.00;;;0.50;;
36725;SDS011;44936;52.086;5.150;2023-07-13T15:27:50;1.05;;;0.63;;
36725;SDS011;44936;52.086;5.150;2023-07-13T15:30:16;3.47;;;0.85;;
36725;SDS011;44936;52.086;5.150;2023-07-13T15:32:42;2.92;;;0.60;;
36725;SDS011;44936;52.086;5.150;2023-07-13T15:35:22;2.22;;;1.23;;
36725;SDS011;44936;52.086;5.150;2023-07-13T15:37:49;1.75;;;1.00;;
36725;SDS011;44936;52.086;5.150;2023-07-13T15:40:15;0.50;;;0.45;;
36725;SDS011;44936;52.086;5.150;2023-07-13T15:42:42;0.40;;;0.40;;
36725;SDS011;44936;52.086;5.150;2023-07-13T15:45:41;1.40;;;0.50;;
36725;SDS011;44936;52.086;5.150;2023-07-13T15:48:00;1.20;;;0.70;;
36725;SDS011;44936;52.086;5.150;2023-07-13T15:50:25;1.00;;;0.73;;
36725;SDS011;44936;52.086;5.150;2023-07-13T15:52:53;1.65;;;0.50;;
36725;SDS011;44936;52.086;5.150;2023-07-13T15:55:20;2.20;;;0.68;;
36725;SDS011;44936;52.086;5.150;2023-07-13T15:57:47;2.95;;;0.80;;
36725;SDS011;44936;52.086;5.150;2023-07-13T16:00:16;1.75;;;0.80;;
36725;SDS011;44936;52.086;5.150;2023-07-13T16:02:46;0.70;;;0.55;;
36725;SDS011;44936;52.086;5.150;2023-07-13T16:05:12;0.82;;;0.45;;
36725;SDS011;44936;52.086;5.150;2023-07-13T16:07:37;0.93;;;0.52;;